sensor_id;sensor_type;location;lat;lon;timestamp;P1;durP1;ratioP1;P2;durP2;ratioP2
36257;SDS011;22294;52.044;4.582;2022-10-16T00:00:29;5.68;;;1.17;;
36257;SDS011;22294;52.044;4.582;2022-10-16T00:02:55;3.22;;;1.27;;
36257;SDS011;22294;52.044;4.582;2022-10-16T00:05:20;2.63;;;1.10;;
36257;SDS011;22294;52.044;4.582;2022-10-16T00:07:45;3.03;;;0.80;;
36257;SDS011;22294;52.044;4.582;2022-10-16T00:10:11;3.20;;;1.00;;
36257;SDS011;22294;52.044;4.582;2022-10-16T00:12:36;2.55;;;0.90;;
36257;SDS011;22294;52.044;4.582;2022-10-16T00:15:01;1.75;;;0.90;;
36257;SDS011;22294;52.044;4.582;2022-10-16T00:17:27;3.63;;;1.30;;
36257;SDS011;22294;52.044;4.582;2022-10-16T00:19:52;3.40;;;1.13;;
36257;SDS011;22294;52.044;4.582;2022-10-16T00:22:17;1.75;;;0.80;;
36257;SDS011;22294;52.044;4.582;2022-10-16T00:24:43;3.72;;;1.10;;
36257;SDS011;22294;52.044;4.582;2022-10-16T00:27:08;2.85;;;1.25;;
36257;SDS011;22294;52.044;4.582;2022-10-16T00:29:33;2.83;;;0.93;;
36257;SDS011;22294;52.044;4.582;2022-10-16T00:31:58;2.92;;;0.85;;
36257;SDS011;22294;52.044;4.582;2022-10-16T00:34:24;4.85;;;0.90;;
36257;SDS011;22294;52.044;4.582;2022-10-16T00:36:49;1.35;;;0.70;;
36257;SDS011;22294;52.044;4.582;2022-10-16T00:39:14;2.17;;;0.82;;
36257;SDS011;22294;52.044;4.582;2022-10-16T00:41:39;2.65;;;0.73;;
36257;SDS011;22294;52.044;4.582;2022-10-16T00:44:41;3.47;;;0.80;;
36257;SDS011;22294;52.044;4.582;2022-10-16T00:49:47;1.25;;;0.60;;
36257;SDS011;22294;52.044;4.582;2022-10-16T00:52:16;1.13;;;0.70;;
36257;SDS011;22294;52.044;4.582;2022-10-16T00:54:42;3.47;;;0.70;;
36257;SDS011;22294;52.044;4.582;2022-10-16T00:57:08;2.00;;;0.57;;
36257;SDS011;22294;52.044;4.582;2022-10-16T00:59:35;2.45;;;0.68;;
36257;SDS011;22294;52.044;4.582;2022-10-16T01:02:04;4.18;;;0.60;;
36257;SDS011;22294;52.044;4.582;2022-10-16T01:04:32;1.45;;;0.75;;
36257;SDS011;22294;52.044;4.582;2022-10-16T01:09:32;3.10;;;0.90;;
36257;SDS011;22294;52.044;4.582;2022-10-16T01:12:15;2.08;;;0.82;;
36257;SDS011;22294;52.044;4.582;2022-10-16T01:15:04;2.13;;;0.85;;
36257;SDS011;22294;52.044;4.582;2022-10-16T01:17:39;2.85;;;0.90;;
36257;SDS011;22294;52.044;4.582;2022-10-16T01:20:26;3.05;;;0.80;;
36257;SDS011;22294;52.044;4.582;2022-10-16T01:23:15;2.00;;;0.80;;
36257;SDS011;22294;52.044;4.582;2022-10-16T01:28:36;3.38;;;1.00;;
36257;SDS011;22294;52.044;4.582;2022-10-16T01:31:18;1.70;;;1.00;;
36257;SDS011;22294;52.044;4.582;2022-10-16T01:33:48;1.83;;;1.13;;
36257;SDS011;22294;52.044;4.582;2022-10-16T01:36:21;2.72;;;1.25;;
36257;SDS011;22294;52.044;4.582;2022-10-16T01:38:51;2.25;;;1.00;;
36257;SDS011;22294;52.044;4.582;2022-10-16T01:44:02;2.67;;;1.05;;
36257;SDS011;22294;52.044;4.582;2022-10-16T01:46:32;3.17;;;0.90;;
36257;SDS011;22294;52.044;4.582;2022-10-16T01:49:01;4.28;;;1.15;;
36257;SDS011;22294;52.044;4.582;2022-10-16T01:51:28;2.67;;;1.10;;
36257;SDS011;22294;52.044;4.582;2022-10-16T01:53:55;3.42;;;0.95;;
36257;SDS011;22294;52.044;4.582;2022-10-16T01:56:24;3.60;;;1.33;;
36257;SDS011;22294;52.044;4.582;2022-10-16T01:59:12;2.63;;;1.02;;
36257;SDS011;22294;52.044;4.582;2022-10-16T02:01:39;2.45;;;1.15;;
36257;SDS011;22294;52.044;4.582;2022-10-16T02:04:15;3.05;;;1.17;;
36257;SDS011;22294;52.044;4.582;2022-10-16T02:06:46;1.48;;;0.90;;
36257;SDS011;22294;52.044;4.582;2022-10-16T02:09:11;1.70;;;1.10;;
36257;SDS011;22294;52.044;4.582;2022-10-16T02:11:37;3.83;;;1.45;;
36257;SDS011;22294;52.044;4.582;2022-10-16T02:14:03;3.90;;;0.95;;
36257;SDS011;22294;52.044;4.582;2022-10-16T02:16:35;2.30;;;1.30;;
36257;SDS011;22294;52.044;4.582;2022-10-16T02:19:03;3.08;;;1.38;;
36257;SDS011;22294;52.044;4.582;2022-10-16T02:26:43;4.40;;;1.50;;
36257;SDS011;22294;52.044;4.582;2022-10-16T02:29:15;2.85;;;1.40;;
36257;SDS011;22294;52.044;4.582;2022-10-16T02:31:45;3.88;;;1.60;;
36257;SDS011;22294;52.044;4.582;2022-10-16T02:34:14;4.75;;;1.70;;
36257;SDS011;22294;52.044;4.582;2022-10-16T02:36:41;2.22;;;1.50;;
36257;SDS011;22294;52.044;4.582;2022-10-16T02:39:09;5.82;;;1.60;;
36257;SDS011;22294;52.044;4.582;2022-10-16T02:41:35;3.63;;;1.55;;
36257;SDS011;22294;52.044;4.582;2022-10-16T02:44:01;6.60;;;1.50;;
36257;SDS011;22294;52.044;4.582;2022-10-16T02:46:26;4.85;;;2.35;;
36257;SDS011;22294;52.044;4.582;2022-10-16T02:48:51;4.85;;;1.65;;
36257;SDS011;22294;52.044;4.582;2022-10-16T02:51:17;3.47;;;1.38;;
36257;SDS011;22294;52.044;4.582;2022-10-16T02:53:42;4.38;;;1.80;;
36257;SDS011;22294;52.044;4.582;2022-10-16T02:56:07;2.17;;;1.48;;
36257;SDS011;22294;52.044;4.582;2022-10-16T02:58:32;3.13;;;1.52;;
36257;SDS011;22294;52.044;4.582;2022-10-16T03:00:58;2.13;;;1.20;;
36257;SDS011;22294;52.044;4.582;2022-10-16T03:03:23;3.33;;;1.30;;
36257;SDS011;22294;52.044;4.582;2022-10-16T03:05:48;3.72;;;1.40;;
36257;SDS011;22294;52.044;4.582;2022-10-16T03:08:14;5.10;;;1.52;;
36257;SDS011;22294;52.044;4.582;2022-10-16T03:10:39;5.00;;;1.50;;
36257;SDS011;22294;52.044;4.582;2022-10-16T03:13:05;5.28;;;1.60;;
36257;SDS011;22294;52.044;4.582;2022-10-16T03:15:30;5.18;;;1.67;;
36257;SDS011;22294;52.044;4.582;2022-10-16T03:17:58;2.30;;;1.42;;
36257;SDS011;22294;52.044;4.582;2022-10-16T03:20:24;3.67;;;1.38;;
36257;SDS011;22294;52.044;4.582;2022-10-16T03:22:50;2.40;;;1.30;;
36257;SDS011;22294;52.044;4.582;2022-10-16T03:25:15;3.95;;;1.20;;
36257;SDS011;22294;52.044;4.582;2022-10-16T03:27:40;4.95;;;1.30;;
36257;SDS011;22294;52.044;4.582;2022-10-16T03:30:06;3.90;;;1.40;;
36257;SDS011;22294;52.044;4.582;2022-10-16T03:32:32;6.15;;;1.38;;
36257;SDS011;22294;52.044;4.582;2022-10-16T03:34:58;3.45;;;1.30;;
36257;SDS011;22294;52.044;4.582;2022-10-16T03:37:23;3.67;;;1.20;;
36257;SDS011;22294;52.044;4.582;2022-10-16T03:39:49;2.75;;;1.30;;
36257;SDS011;22294;52.044;4.582;2022-10-16T03:42:14;3.63;;;1.48;;
36257;SDS011;22294;52.044;4.582;2022-10-16T03:44:39;3.85;;;1.00;;
36257;SDS011;22294;52.044;4.582;2022-10-16T03:47:04;4.57;;;1.30;;
36257;SDS011;22294;52.044;4.582;2022-10-16T03:49:30;2.60;;;1.20;;
36257;SDS011;22294;52.044;4.582;2022-10-16T03:51:55;3.92;;;1.63;;
36257;SDS011;22294;52.044;4.582;2022-10-16T03:54:20;3.10;;;1.08;;
36257;SDS011;22294;52.044;4.582;2022-10-16T03:56:47;4.18;;;1.33;;
36257;SDS011;22294;52.044;4.582;2022-10-16T03:59:12;4.07;;;1.70;;
36257;SDS011;22294;52.044;4.582;2022-10-16T04:01:37;5.22;;;1.35;;
36257;SDS011;22294;52.044;4.582;2022-10-16T04:04:03;4.80;;;1.17;;
36257;SDS011;22294;52.044;4.582;2022-10-16T04:06:28;2.67;;;1.17;;
36257;SDS011;22294;52.044;4.582;2022-10-16T04:08:53;2.05;;;1.15;;
36257;SDS011;22294;52.044;4.582;2022-10-16T04:11:19;2.80;;;1.25;;
36257;SDS011;22294;52.044;4.582;2022-10-16T04:13:44;2.85;;;1.30;;
36257;SDS011;22294;52.044;4.582;2022-10-16T04:16:09;4.97;;;1.13;;
36257;SDS011;22294;52.044;4.582;2022-10-16T04:18:34;2.05;;;1.13;;
36257;SDS011;22294;52.044;4.582;2022-10-16T04:21:03;3.65;;;1.40;;
36257;SDS011;22294;52.044;4.582;2022-10-16T04:23:30;3.58;;;1.35;;
36257;SDS011;22294;52.044;4.582;2022-10-16T04:25:55;2.75;;;1.25;;
36257;SDS011;22294;52.044;4.582;2022-10-16T04:28:20;5.15;;;1.42;;
36257;SDS011;22294;52.044;4.582;2022-10-16T04:30:46;3.10;;;1.30;;
36257;SDS011;22294;52.044;4.582;2022-10-16T04:33:11;4.57;;;1.40;;
36257;SDS011;22294;52.044;4.582;2022-10-16T04:35:37;3.38;;;1.73;;
36257;SDS011;22294;52.044;4.582;2022-10-16T04:38:03;3.10;;;1.20;;
36257;SDS011;22294;52.044;4.582;2022-10-16T04:40:28;2.72;;;1.25;;
36257;SDS011;22294;52.044;4.582;2022-10-16T04:42:54;2.88;;;1.45;;
36257;SDS011;22294;52.044;4.582;2022-10-16T04:45:19;1.83;;;1.20;;
36257;SDS011;22294;52.044;4.582;2022-10-16T04:47:44;3.45;;;1.30;;
36257;SDS011;22294;52.044;4.582;2022-10-16T04:50:10;2.60;;;1.30;;
36257;SDS011;22294;52.044;4.582;2022-10-16T04:52:35;2.97;;;1.40;;
36257;SDS011;22294;52.044;4.582;2022-10-16T04:55:00;3.60;;;1.40;;
36257;SDS011;22294;52.044;4.582;2022-10-16T04:57:28;9.32;;;1.75;;
36257;SDS011;22294;52.044;4.582;2022-10-16T04:59:55;3.42;;;1.23;;
36257;SDS011;22294;52.044;4.582;2022-10-16T05:02:20;4.30;;;1.60;;
36257;SDS011;22294;52.044;4.582;2022-10-16T05:04:46;4.10;;;1.15;;
36257;SDS011;22294;52.044;4.582;2022-10-16T05:07:11;2.75;;;1.55;;
36257;SDS011;22294;52.044;4.582;2022-10-16T05:09:36;4.57;;;1.40;;
36257;SDS011;22294;52.044;4.582;2022-10-16T05:12:02;4.90;;;1.70;;
36257;SDS011;22294;52.044;4.582;2022-10-16T05:14:28;3.05;;;1.30;;
36257;SDS011;22294;52.044;4.582;2022-10-16T05:16:53;8.80;;;1.60;;
36257;SDS011;22294;52.044;4.582;2022-10-16T05:19:19;5.72;;;1.30;;
36257;SDS011;22294;52.044;4.582;2022-10-16T05:21:44;5.47;;;1.65;;
36257;SDS011;22294;52.044;4.582;2022-10-16T05:24:09;2.90;;;1.30;;
36257;SDS011;22294;52.044;4.582;2022-10-16T05:26:35;4.55;;;1.50;;
36257;SDS011;22294;52.044;4.582;2022-10-16T05:29:00;3.47;;;1.45;;
36257;SDS011;22294;52.044;4.582;2022-10-16T05:31:25;5.75;;;2.00;;
36257;SDS011;22294;52.044;4.582;2022-10-16T05:33:51;3.95;;;1.80;;
36257;SDS011;22294;52.044;4.582;2022-10-16T05:36:16;5.70;;;1.60;;
36257;SDS011;22294;52.044;4.582;2022-10-16T05:38:43;4.72;;;1.35;;
36257;SDS011;22294;52.044;4.582;2022-10-16T05:41:09;3.00;;;1.25;;
36257;SDS011;22294;52.044;4.582;2022-10-16T05:43:34;4.10;;;1.73;;
36257;SDS011;22294;52.044;4.582;2022-10-16T05:46:00;2.05;;;1.10;;
36257;SDS011;22294;52.044;4.582;2022-10-16T05:48:28;4.07;;;1.60;;
36257;SDS011;22294;52.044;4.582;2022-10-16T05:51:02;6.47;;;1.50;;
36257;SDS011;22294;52.044;4.582;2022-10-16T05:53:29;6.57;;;1.48;;
36257;SDS011;22294;52.044;4.582;2022-10-16T05:55:56;3.67;;;1.23;;
36257;SDS011;22294;52.044;4.582;2022-10-16T05:58:22;5.50;;;1.30;;
36257;SDS011;22294;52.044;4.582;2022-10-16T06:03:21;3.22;;;1.20;;
36257;SDS011;22294;52.044;4.582;2022-10-16T06:05:46;6.65;;;1.42;;
36257;SDS011;22294;52.044;4.582;2022-10-16T06:08:12;2.65;;;1.35;;
36257;SDS011;22294;52.044;4.582;2022-10-16T06:10:37;7.28;;;1.85;;
36257;SDS011;22294;52.044;4.582;2022-10-16T06:13:02;3.80;;;1.23;;
36257;SDS011;22294;52.044;4.582;2022-10-16T06:15:27;4.05;;;1.67;;
36257;SDS011;22294;52.044;4.582;2022-10-16T06:17:53;3.28;;;1.23;;
36257;SDS011;22294;52.044;4.582;2022-10-16T06:20:18;7.03;;;1.30;;
36257;SDS011;22294;52.044;4.582;2022-10-16T06:22:43;4.18;;;1.50;;
36257;SDS011;22294;52.044;4.582;2022-10-16T06:25:08;5.95;;;1.70;;
36257;SDS011;22294;52.044;4.582;2022-10-16T06:27:34;13.40;;;1.58;;
36257;SDS011;22294;52.044;4.582;2022-10-16T06:29:59;3.17;;;1.15;;
36257;SDS011;22294;52.044;4.582;2022-10-16T06:32:24;6.20;;;1.20;;
36257;SDS011;22294;52.044;4.582;2022-10-16T06:34:50;4.05;;;1.40;;
36257;SDS011;22294;52.044;4.582;2022-10-16T06:37:15;5.82;;;1.48;;
36257;SDS011;22294;52.044;4.582;2022-10-16T06:39:40;4.40;;;1.38;;
36257;SDS011;22294;52.044;4.582;2022-10-16T06:42:05;4.82;;;1.40;;
36257;SDS011;22294;52.044;4.582;2022-10-16T06:44:31;5.60;;;1.20;;
36257;SDS011;22294;52.044;4.582;2022-10-16T06:46:56;2.95;;;1.10;;
36257;SDS011;22294;52.044;4.582;2022-10-16T06:49:21;4.55;;;1.23;;
36257;SDS011;22294;52.044;4.582;2022-10-16T06:51:47;6.78;;;2.17;;
36257;SDS011;22294;52.044;4.582;2022-10-16T06:54:14;7.72;;;1.10;;
36257;SDS011;22294;52.044;4.582;2022-10-16T06:56:40;6.93;;;1.20;;
36257;SDS011;22294;52.044;4.582;2022-10-16T06:59:05;6.43;;;1.10;;
36257;SDS011;22294;52.044;4.582;2022-10-16T07:01:31;5.65;;;0.88;;
36257;SDS011;22294;52.044;4.582;2022-10-16T07:03:57;5.18;;;1.30;;
36257;SDS011;22294;52.044;4.582;2022-10-16T07:06:23;4.50;;;0.90;;
36257;SDS011;22294;52.044;4.582;2022-10-16T07:08:50;4.55;;;1.25;;
36257;SDS011;22294;52.044;4.582;2022-10-16T07:11:17;5.63;;;1.00;;
36257;SDS011;22294;52.044;4.582;2022-10-16T07:13:44;2.80;;;1.10;;
36257;SDS011;22294;52.044;4.582;2022-10-16T07:16:12;3.92;;;1.50;;
36257;SDS011;22294;52.044;4.582;2022-10-16T07:18:38;7.13;;;1.52;;
36257;SDS011;22294;52.044;4.582;2022-10-16T07:21:05;5.82;;;1.17;;
36257;SDS011;22294;52.044;4.582;2022-10-16T07:23:32;4.60;;;1.52;;
36257;SDS011;22294;52.044;4.582;2022-10-16T07:25:58;6.18;;;1.67;;
36257;SDS011;22294;52.044;4.582;2022-10-16T07:28:23;7.65;;;2.33;;
36257;SDS011;22294;52.044;4.582;2022-10-16T07:30:48;5.60;;;2.60;;
36257;SDS011;22294;52.044;4.582;2022-10-16T07:33:14;5.10;;;1.80;;
36257;SDS011;22294;52.044;4.582;2022-10-16T07:35:52;7.40;;;2.28;;
36257;SDS011;22294;52.044;4.582;2022-10-16T07:38:19;5.43;;;1.83;;
36257;SDS011;22294;52.044;4.582;2022-10-16T07:40:45;8.32;;;1.60;;
36257;SDS011;22294;52.044;4.582;2022-10-16T07:43:10;8.45;;;2.03;;
36257;SDS011;22294;52.044;4.582;2022-10-16T07:45:36;5.90;;;1.70;;
36257;SDS011;22294;52.044;4.582;2022-10-16T07:48:01;5.55;;;1.80;;
36257;SDS011;22294;52.044;4.582;2022-10-16T07:50:27;5.95;;;1.50;;
36257;SDS011;22294;52.044;4.582;2022-10-16T07:52:52;4.78;;;1.58;;
36257;SDS011;22294;52.044;4.582;2022-10-16T07:55:18;5.32;;;1.42;;
36257;SDS011;22294;52.044;4.582;2022-10-16T07:57:43;6.53;;;1.95;;
36257;SDS011;22294;52.044;4.582;2022-10-16T08:00:08;8.13;;;1.77;;
36257;SDS011;22294;52.044;4.582;2022-10-16T08:02:38;6.50;;;1.67;;
36257;SDS011;22294;52.044;4.582;2022-10-16T08:05:07;8.32;;;1.73;;
36257;SDS011;22294;52.044;4.582;2022-10-16T08:07:32;6.32;;;1.60;;
36257;SDS011;22294;52.044;4.582;2022-10-16T08:09:58;6.97;;;1.42;;
36257;SDS011;22294;52.044;4.582;2022-10-16T08:12:25;8.30;;;1.77;;
36257;SDS011;22294;52.044;4.582;2022-10-16T08:14:50;11.15;;;2.13;;
36257;SDS011;22294;52.044;4.582;2022-10-16T08:17:16;8.32;;;1.60;;
36257;SDS011;22294;52.044;4.582;2022-10-16T08:19:47;7.95;;;2.08;;
36257;SDS011;22294;52.044;4.582;2022-10-16T08:22:13;7.47;;;2.20;;
36257;SDS011;22294;52.044;4.582;2022-10-16T08:24:39;8.07;;;1.73;;
36257;SDS011;22294;52.044;4.582;2022-10-16T08:27:05;8.43;;;1.75;;
36257;SDS011;22294;52.044;4.582;2022-10-16T08:29:30;8.52;;;1.98;;
36257;SDS011;22294;52.044;4.582;2022-10-16T08:31:55;10.30;;;1.73;;
36257;SDS011;22294;52.044;4.582;2022-10-16T08:34:21;10.60;;;1.90;;
36257;SDS011;22294;52.044;4.582;2022-10-16T08:36:46;11.73;;;1.88;;
36257;SDS011;22294;52.044;4.582;2022-10-16T08:39:11;7.80;;;1.67;;
36257;SDS011;22294;52.044;4.582;2022-10-16T08:46:42;10.02;;;1.85;;
36257;SDS011;22294;52.044;4.582;2022-10-16T08:49:16;8.38;;;1.83;;
36257;SDS011;22294;52.044;4.582;2022-10-16T08:51:41;11.40;;;2.13;;
36257;SDS011;22294;52.044;4.582;2022-10-16T08:59:13;8.65;;;1.73;;
36257;SDS011;22294;52.044;4.582;2022-10-16T09:01:41;10.82;;;1.85;;
36257;SDS011;22294;52.044;4.582;2022-10-16T09:15:24;10.35;;;1.90;;
36257;SDS011;22294;52.044;4.582;2022-10-16T09:20:53;9.95;;;2.08;;
36257;SDS011;22294;52.044;4.582;2022-10-16T09:23:34;12.68;;;2.83;;
36257;SDS011;22294;52.044;4.582;2022-10-16T09:26:01;10.82;;;2.22;;
36257;SDS011;22294;52.044;4.582;2022-10-16T09:28:28;15.63;;;2.83;;
36257;SDS011;22294;52.044;4.582;2022-10-16T09:30:53;11.00;;;1.63;;
36257;SDS011;22294;52.044;4.582;2022-10-16T09:33:20;9.20;;;1.75;;
36257;SDS011;22294;52.044;4.582;2022-10-16T09:35:51;10.23;;;1.90;;
36257;SDS011;22294;52.044;4.582;2022-10-16T09:38:23;10.50;;;1.67;;
36257;SDS011;22294;52.044;4.582;2022-10-16T09:40:57;9.80;;;1.73;;
36257;SDS011;22294;52.044;4.582;2022-10-16T09:43:39;10.95;;;2.20;;
36257;SDS011;22294;52.044;4.582;2022-10-16T09:46:07;11.52;;;2.10;;
36257;SDS011;22294;52.044;4.582;2022-10-16T09:48:47;10.63;;;1.73;;
36257;SDS011;22294;52.044;4.582;2022-10-16T09:53:57;11.30;;;2.10;;
36257;SDS011;22294;52.044;4.582;2022-10-16T09:56:32;8.10;;;1.55;;
36257;SDS011;22294;52.044;4.582;2022-10-16T09:59:10;12.43;;;2.03;;
36257;SDS011;22294;52.044;4.582;2022-10-16T10:01:37;11.93;;;1.75;;
36257;SDS011;22294;52.044;4.582;2022-10-16T10:04:04;11.45;;;1.75;;
36257;SDS011;22294;52.044;4.582;2022-10-16T10:06:32;12.32;;;1.92;;
36257;SDS011;22294;52.044;4.582;2022-10-16T10:11:49;19.35;;;2.30;;
36257;SDS011;22294;52.044;4.582;2022-10-16T10:14:20;12.88;;;2.03;;
36257;SDS011;22294;52.044;4.582;2022-10-16T10:22:43;10.93;;;1.80;;
36257;SDS011;22294;52.044;4.582;2022-10-16T10:35:34;10.30;;;1.50;;
36257;SDS011;22294;52.044;4.582;2022-10-16T10:39:12;12.63;;;2.50;;
36257;SDS011;22294;52.044;4.582;2022-10-16T10:46:32;10.25;;;2.00;;
36257;SDS011;22294;52.044;4.582;2022-10-16T10:52:02;16.63;;;2.28;;
36257;SDS011;22294;52.044;4.582;2022-10-16T10:54:56;11.35;;;1.75;;
36257;SDS011;22294;52.044;4.582;2022-10-16T11:03:39;8.52;;;1.73;;
36257;SDS011;22294;52.044;4.582;2022-10-16T11:06:17;12.07;;;2.47;;
36257;SDS011;22294;52.044;4.582;2022-10-16T11:11:46;11.65;;;1.85;;
36257;SDS011;22294;52.044;4.582;2022-10-16T11:14:21;8.70;;;1.90;;
36257;SDS011;22294;52.044;4.582;2022-10-16T11:16:56;15.90;;;2.00;;
36257;SDS011;22294;52.044;4.582;2022-10-16T11:19:50;9.25;;;1.63;;
36257;SDS011;22294;52.044;4.582;2022-10-16T11:22:42;13.85;;;1.83;;
36257;SDS011;22294;52.044;4.582;2022-10-16T11:25:27;9.57;;;2.08;;
36257;SDS011;22294;52.044;4.582;2022-10-16T11:41:51;9.30;;;1.35;;
36257;SDS011;22294;52.044;4.582;2022-10-16T11:47:08;11.50;;;2.90;;
36257;SDS011;22294;52.044;4.582;2022-10-16T11:49:34;13.85;;;2.15;;
36257;SDS011;22294;52.044;4.582;2022-10-16T11:52:16;9.98;;;1.80;;
36257;SDS011;22294;52.044;4.582;2022-10-16T11:57:32;12.32;;;1.80;;
36257;SDS011;22294;52.044;4.582;2022-10-16T12:00:08;11.33;;;1.80;;
36257;SDS011;22294;52.044;4.582;2022-10-16T12:02:48;10.38;;;1.35;;
36257;SDS011;22294;52.044;4.582;2022-10-16T12:08:20;10.07;;;1.98;;
36257;SDS011;22294;52.044;4.582;2022-10-16T12:10:46;8.95;;;2.33;;
36257;SDS011;22294;52.044;4.582;2022-10-16T12:13:32;12.82;;;2.10;;
36257;SDS011;22294;52.044;4.582;2022-10-16T12:18:36;9.95;;;1.95;;
36257;SDS011;22294;52.044;4.582;2022-10-16T12:21:01;12.77;;;2.13;;
36257;SDS011;22294;52.044;4.582;2022-10-16T12:23:33;8.23;;;1.90;;
36257;SDS011;22294;52.044;4.582;2022-10-16T12:28:29;12.82;;;2.28;;
36257;SDS011;22294;52.044;4.582;2022-10-16T12:31:00;12.45;;;1.80;;
36257;SDS011;22294;52.044;4.582;2022-10-16T12:36:03;11.90;;;1.92;;
36257;SDS011;22294;52.044;4.582;2022-10-16T12:38:36;9.48;;;1.88;;
36257;SDS011;22294;52.044;4.582;2022-10-16T12:41:12;9.27;;;1.70;;
36257;SDS011;22294;52.044;4.582;2022-10-16T12:43:50;8.63;;;1.73;;
36257;SDS011;22294;52.044;4.582;2022-10-16T12:48:41;9.90;;;1.80;;
36257;SDS011;22294;52.044;4.582;2022-10-16T12:59:25;8.05;;;1.67;;
36257;SDS011;22294;52.044;4.582;2022-10-16T13:08:16;11.45;;;1.73;;
36257;SDS011;22294;52.044;4.582;2022-10-16T13:13:53;11.10;;;1.88;;
36257;SDS011;22294;52.044;4.582;2022-10-16T13:20:30;8.63;;;1.70;;
36257;SDS011;22294;52.044;4.582;2022-10-16T13:23:13;7.60;;;1.58;;
36257;SDS011;22294;52.044;4.582;2022-10-16T13:28:52;7.53;;;1.50;;
36257;SDS011;22294;52.044;4.582;2022-10-16T13:31:21;10.10;;;1.92;;
36257;SDS011;22294;52.044;4.582;2022-10-16T13:33:50;9.50;;;1.52;;
36257;SDS011;22294;52.044;4.582;2022-10-16T13:36:24;13.70;;;2.17;;
36257;SDS011;22294;52.044;4.582;2022-10-16T13:41:37;11.98;;;2.28;;
36257;SDS011;22294;52.044;4.582;2022-10-16T13:44:03;9.75;;;2.13;;
36257;SDS011;22294;52.044;4.582;2022-10-16T13:46:30;11.80;;;1.95;;
36257;SDS011;22294;52.044;4.582;2022-10-16T13:49:20;10.15;;;1.92;;
36257;SDS011;22294;52.044;4.582;2022-10-16T13:52:00;11.00;;;2.17;;
36257;SDS011;22294;52.044;4.582;2022-10-16T13:54:27;12.40;;;2.00;;
36257;SDS011;22294;52.044;4.582;2022-10-16T13:56:55;12.18;;;2.33;;
36257;SDS011;22294;52.044;4.582;2022-10-16T14:01:52;11.43;;;2.15;;
36257;SDS011;22294;52.044;4.582;2022-10-16T14:04:20;7.32;;;1.15;;
36257;SDS011;22294;52.044;4.582;2022-10-16T14:06:46;9.45;;;1.50;;
36257;SDS011;22294;52.044;4.582;2022-10-16T14:11:50;12.65;;;2.28;;
36257;SDS011;22294;52.044;4.582;2022-10-16T14:14:21;16.70;;;2.00;;
36257;SDS011;22294;52.044;4.582;2022-10-16T14:16:47;12.40;;;2.35;;
36257;SDS011;22294;52.044;4.582;2022-10-16T14:19:26;11.52;;;2.13;;
36257;SDS011;22294;52.044;4.582;2022-10-16T14:21:54;10.05;;;1.80;;
36257;SDS011;22294;52.044;4.582;2022-10-16T14:26:55;11.57;;;2.03;;
36257;SDS011;22294;52.044;4.582;2022-10-16T14:29:21;13.25;;;2.20;;
36257;SDS011;22294;52.044;4.582;2022-10-16T14:31:59;10.32;;;1.65;;
36257;SDS011;22294;52.044;4.582;2022-10-16T14:34:25;9.32;;;2.05;;
36257;SDS011;22294;52.044;4.582;2022-10-16T14:39:49;7.88;;;2.05;;
36257;SDS011;22294;52.044;4.582;2022-10-16T14:42:18;12.63;;;2.20;;
36257;SDS011;22294;52.044;4.582;2022-10-16T14:44:48;10.77;;;3.35;;
36257;SDS011;22294;52.044;4.582;2022-10-16T14:47:18;9.23;;;2.57;;
36257;SDS011;22294;52.044;4.582;2022-10-16T14:49:49;8.85;;;2.25;;
36257;SDS011;22294;52.044;4.582;2022-10-16T14:52:14;11.45;;;1.98;;
36257;SDS011;22294;52.044;4.582;2022-10-16T14:54:39;11.32;;;2.08;;
36257;SDS011;22294;52.044;4.582;2022-10-16T14:57:05;9.32;;;2.33;;
36257;SDS011;22294;52.044;4.582;2022-10-16T14:59:42;8.02;;;1.58;;
36257;SDS011;22294;52.044;4.582;2022-10-16T15:05:14;16.52;;;1.83;;
36257;SDS011;22294;52.044;4.582;2022-10-16T15:07:47;13.55;;;1.92;;
36257;SDS011;22294;52.044;4.582;2022-10-16T15:10:14;9.82;;;1.80;;
36257;SDS011;22294;52.044;4.582;2022-10-16T15:12:41;16.23;;;2.20;;
36257;SDS011;22294;52.044;4.582;2022-10-16T15:18:02;12.80;;;2.17;;
36257;SDS011;22294;52.044;4.582;2022-10-16T15:20:35;15.98;;;2.60;;
36257;SDS011;22294;52.044;4.582;2022-10-16T15:23:03;14.02;;;2.53;;
36257;SDS011;22294;52.044;4.582;2022-10-16T15:28:06;11.65;;;1.83;;
36257;SDS011;22294;52.044;4.582;2022-10-16T15:30:32;8.45;;;1.67;;
36257;SDS011;22294;52.044;4.582;2022-10-16T15:32:59;11.00;;;1.90;;
36257;SDS011;22294;52.044;4.582;2022-10-16T15:35:24;8.52;;;2.00;;
36257;SDS011;22294;52.044;4.582;2022-10-16T15:37:50;9.93;;;2.13;;
36257;SDS011;22294;52.044;4.582;2022-10-16T15:40:16;11.35;;;2.45;;
36257;SDS011;22294;52.044;4.582;2022-10-16T15:42:42;11.00;;;2.13;;
36257;SDS011;22294;52.044;4.582;2022-10-16T15:45:08;13.40;;;2.20;;
36257;SDS011;22294;52.044;4.582;2022-10-16T15:47:35;9.27;;;2.15;;
36257;SDS011;22294;52.044;4.582;2022-10-16T15:50:00;12.93;;;2.60;;
36257;SDS011;22294;52.044;4.582;2022-10-16T15:52:26;9.02;;;1.85;;
36257;SDS011;22294;52.044;4.582;2022-10-16T15:54:53;14.02;;;2.45;;
36257;SDS011;22294;52.044;4.582;2022-10-16T15:57:18;14.93;;;2.33;;
36257;SDS011;22294;52.044;4.582;2022-10-16T15:59:44;9.32;;;2.22;;
36257;SDS011;22294;52.044;4.582;2022-10-16T16:02:09;9.02;;;1.98;;
36257;SDS011;22294;52.044;4.582;2022-10-16T16:04:34;13.27;;;2.80;;
36257;SDS011;22294;52.044;4.582;2022-10-16T16:07:00;13.38;;;2.28;;
36257;SDS011;22294;52.044;4.582;2022-10-16T16:09:26;13.18;;;2.45;;
36257;SDS011;22294;52.044;4.582;2022-10-16T16:11:53;8.57;;;2.30;;
36257;SDS011;22294;52.044;4.582;2022-10-16T16:14:18;10.85;;;2.58;;
36257;SDS011;22294;52.044;4.582;2022-10-16T16:16:45;13.88;;;2.55;;
36257;SDS011;22294;52.044;4.582;2022-10-16T16:19:11;14.35;;;3.28;;
36257;SDS011;22294;52.044;4.582;2022-10-16T16:21:37;13.95;;;3.30;;
36257;SDS011;22294;52.044;4.582;2022-10-16T16:24:02;10.82;;;2.92;;
36257;SDS011;22294;52.044;4.582;2022-10-16T16:29:01;15.32;;;2.67;;
36257;SDS011;22294;52.044;4.582;2022-10-16T16:31:28;13.40;;;2.72;;
36257;SDS011;22294;52.044;4.582;2022-10-16T16:33:54;12.43;;;2.72;;
36257;SDS011;22294;52.044;4.582;2022-10-16T16:36:21;12.82;;;2.65;;
36257;SDS011;22294;52.044;4.582;2022-10-16T16:38:47;11.02;;;2.80;;
36257;SDS011;22294;52.044;4.582;2022-10-16T16:41:17;13.73;;;3.08;;
36257;SDS011;22294;52.044;4.582;2022-10-16T16:43:46;12.82;;;3.10;;
36257;SDS011;22294;52.044;4.582;2022-10-16T16:46:13;10.75;;;2.60;;
36257;SDS011;22294;52.044;4.582;2022-10-16T16:48:39;14.82;;;3.85;;
36257;SDS011;22294;52.044;4.582;2022-10-16T16:51:09;15.98;;;3.88;;
36257;SDS011;22294;52.044;4.582;2022-10-16T16:53:41;16.52;;;4.07;;
36257;SDS011;22294;52.044;4.582;2022-10-16T16:56:07;17.65;;;4.22;;
36257;SDS011;22294;52.044;4.582;2022-10-16T16:58:33;14.70;;;4.82;;
36257;SDS011;22294;52.044;4.582;2022-10-16T17:00:58;15.93;;;4.97;;
36257;SDS011;22294;52.044;4.582;2022-10-16T17:03:27;14.65;;;4.78;;
36257;SDS011;22294;52.044;4.582;2022-10-16T17:05:59;17.63;;;5.10;;
36257;SDS011;22294;52.044;4.582;2022-10-16T17:08:28;15.07;;;5.65;;
36257;SDS011;22294;52.044;4.582;2022-10-16T17:10:55;17.42;;;5.40;;
36257;SDS011;22294;52.044;4.582;2022-10-16T17:13:21;20.45;;;6.93;;
36257;SDS011;22294;52.044;4.582;2022-10-16T17:15:48;17.58;;;7.05;;
36257;SDS011;22294;52.044;4.582;2022-10-16T17:18:14;18.05;;;7.10;;
36257;SDS011;22294;52.044;4.582;2022-10-16T17:20:40;16.48;;;6.25;;
36257;SDS011;22294;52.044;4.582;2022-10-16T17:23:06;21.75;;;7.15;;
36257;SDS011;22294;52.044;4.582;2022-10-16T17:25:35;20.33;;;7.28;;
36257;SDS011;22294;52.044;4.582;2022-10-16T17:28:01;14.35;;;6.40;;
36257;SDS011;22294;52.044;4.582;2022-10-16T17:30:26;17.60;;;4.65;;
36257;SDS011;22294;52.044;4.582;2022-10-16T17:32:51;10.52;;;4.15;;